sensor_id;sensor_type;location;lat;lon;timestamp;temperature;humidity
5940;DHT22;2995;-31.998;115.906;2023-08-21T00:01:45;11.90;99.90
5940;DHT22;2995;-31.998;115.906;2023-08-21T00:04:18;11.90;99.90
5940;DHT22;2995;-31.998;115.906;2023-08-21T00:06:49;12.00;99.90
5940;DHT22;2995;-31.998;115.906;2023-08-21T00:09:20;12.00;99.90
5940;DHT22;2995;-31.998;115.906;2023-08-21T00:11:52;12.10;99.90
5940;DHT22;2995;-31.998;115.906;2023-08-21T00:14:23;12.00;99.90
5940;DHT22;2995;-31.998;115.906;2023-08-21T00:16:54;12.10;99.90
5940;DHT22;2995;-31.998;115.906;2023-08-21T00:19:27;12.30;99.90
5940;DHT22;2995;-31.998;115.906;2023-08-21T00:21:59;12.40;99.90
5940;DHT22;2995;-31.998;115.906;2023-08-21T00:24:30;12.40;99.90
5940;DHT22;2995;-31.998;115.906;2023-08-21T00:27:01;12.40;99.90
5940;DHT22;2995;-31.998;115.906;2023-08-21T00:29:33;12.50;99.90
5940;DHT22;2995;-31.998;115.906;2023-08-21T00:32:04;12.60;99.90
5940;DHT22;2995;-31.998;115.906;2023-08-21T00:34:38;12.70;99.90
5940;DHT22;2995;-31.998;115.906;2023-08-21T00:37:10;12.80;99.90
5940;DHT22;2995;-31.998;115.906;2023-08-21T00:39:41;12.90;99.90
5940;DHT22;2995;-31.998;115.906;2023-08-21T00:42:13;12.90;99.90
5940;DHT22;2995;-31.998;115.906;2023-08-21T00:44:44;12.90;99.90
5940;DHT22;2995;-31.998;115.906;2023-08-21T00:47:15;12.90;99.90
5940;DHT22;2995;-31.998;115.906;2023-08-21T00:49:49;13.00;99.90
5940;DHT22;2995;-31.998;115.906;2023-08-21T00:52:20;13.10;99.90
5940;DHT22;2995;-31.998;115.906;2023-08-21T00:54:52;13.20;99.90
5940;DHT22;2995;-31.998;115.906;2023-08-21T00:57:24;13.20;99.90
5940;DHT22;2995;-31.998;115.906;2023-08-21T00:59:56;13.30;99.90
5940;DHT22;2995;-31.998;115.906;2023-08-21T01:02:27;13.30;99.90
5940;DHT22;2995;-31.998;115.906;2023-08-21T01:05:00;13.30;99.90
5940;DHT22;2995;-31.998;115.906;2023-08-21T01:07:38;13.40;99.90
5940;DHT22;2995;-31.998;115.906;2023-08-21T01:10:19;13.40;99.90
5940;DHT22;2995;-31.998;115.906;2023-08-21T01:12:54;13.60;99.90
5940;DHT22;2995;-31.998;115.906;2023-08-21T01:15:28;13.70;99.90
5940;DHT22;2995;-31.998;115.906;2023-08-21T01:18:00;13.80;99.90
5940;DHT22;2995;-31.998;115.906;2023-08-21T01:20:34;14.00;99.90
5940;DHT22;2995;-31.998;115.906;2023-08-21T01:23:06;14.00;99.90
5940;DHT22;2995;-31.998;115.906;2023-08-21T01:25:39;14.00;99.90
5940;DHT22;2995;-31.998;115.906;2023-08-21T01:28:11;14.00;99.90
5940;DHT22;2995;-31.998;115.906;2023-08-21T01:30:42;14.00;99.90
5940;DHT22;2995;-31.998;115.906;2023-08-21T01:33:14;14.00;99.90
5940;DHT22;2995;-31.998;115.906;2023-08-21T01:35:46;14.10;99.90
5940;DHT22;2995;-31.998;115.906;2023-08-21T01:38:18;14.10;99.90
5940;DHT22;2995;-31.998;115.906;2023-08-21T01:40:51;14.20;99.90
5940;DHT22;2995;-31.998;115.906;2023-08-21T01:43:22;14.30;99.90
5940;DHT22;2995;-31.998;115.906;2023-08-21T01:45:54;14.30;99.90
5940;DHT22;2995;-31.998;115.906;2023-08-21T01:48:25;14.40;99.90
5940;DHT22;2995;-31.998;115.906;2023-08-21T01:50:56;14.20;99.90
5940;DHT22;2995;-31.998;115.906;2023-08-21T01:53:27;14.20;99.90
5940;DHT22;2995;-31.998;115.906;2023-08-21T01:56:01;14.40;99.90
5940;DHT22;2995;-31.998;115.906;2023-08-21T01:58:32;14.60;99.90
5940;DHT22;2995;-31.998;115.906;2023-08-21T02:01:03;14.60;99.90
5940;DHT22;2995;-31.998;115.906;2023-08-21T02:03:35;14.70;99.90
5940;DHT22;2995;-31.998;115.906;2023-08-21T02:06:06;14.80;99.90
5940;DHT22;2995;-31.998;115.906;2023-08-21T02:08:38;14.90;99.90
5940;DHT22;2995;-31.998;115.906;2023-08-21T02:11:14;15.00;99.90
5940;DHT22;2995;-31.998;115.906;2023-08-21T02:13:45;15.00;99.90
5940;DHT22;2995;-31.998;115.906;2023-08-21T02:16:16;15.10;99.90
5940;DHT22;2995;-31.998;115.906;2023-08-21T02:18:48;15.10;99.90
5940;DHT22;2995;-31.998;115.906;2023-08-21T02:21:19;15.30;99.90
5940;DHT22;2995;-31.998;115.906;2023-08-21T02:23:51;15.30;99.90
5940;DHT22;2995;-31.998;115.906;2023-08-21T02:26:24;15.30;99.90
5940;DHT22;2995;-31.998;115.906;2023-08-21T02:28:55;15.30;99.90
5940;DHT22;2995;-31.998;115.906;2023-08-21T02:31:26;15.50;99.90
5940;DHT22;2995;-31.998;115.906;2023-08-21T02:33:58;15.80;99.90
5940;DHT22;2995;-31.998;115.906;2023-08-21T02:36:29;15.80;99.90
5940;DHT22;2995;-31.998;115.906;2023-08-21T02:39:00;15.80;99.90
5940;DHT22;2995;-31.998;115.906;2023-08-21T02:41:34;15.80;99.90
5940;DHT22;2995;-31.998;115.906;2023-08-21T02:44:06;15.90;99.90
5940;DHT22;2995;-31.998;115.906;2023-08-21T02:46:37;15.90;99.90
5940;DHT22;2995;-31.998;115.906;2023-08-21T02:49:08;16.00;99.90
5940;DHT22;2995;-31.998;115.906;2023-08-21T02:51:39;16.20;99.90
5940;DHT22;2995;-31.998;115.906;2023-08-21T02:54:11;16.30;99.90
5940;DHT22;2995;-31.998;115.906;2023-08-21T02:56:44;16.20;99.90
5940;DHT22;2995;-31.998;115.906;2023-08-21T02:59:16;16.30;99.90
5940;DHT22;2995;-31.998;115.906;2023-08-21T03:01:47;16.50;99.90
5940;DHT22;2995;-31.998;115.906;2023-08-21T03:04:18;16.50;99.90
5940;DHT22;2995;-31.998;115.906;2023-08-21T03:06:49;16.70;99.90
5940;DHT22;2995;-31.998;115.906;2023-08-21T03:09:20;16.60;99.90
5940;DHT22;2995;-31.998;115.906;2023-08-21T03:11:54;16.60;99.90
5940;DHT22;2995;-31.998;115.906;2023-08-21T03:14:26;16.60;99.90
5940;DHT22;2995;-31.998;115.906;2023-08-21T03:16:57;16.70;99.90
5940;DHT22;2995;-31.998;115.906;2023-08-21T03:19:28;17.00;99.90
5940;DHT22;2995;-31.998;115.906;2023-08-21T03:21:59;17.00;99.90
5940;DHT22;2995;-31.998;115.906;2023-08-21T03:24:31;16.80;99.90
5940;DHT22;2995;-31.998;115.906;2023-08-21T03:27:04;16.90;99.90
5940;DHT22;2995;-31.998;115.906;2023-08-21T03:29:36;16.90;99.90
5940;DHT22;2995;-31.998;115.906;2023-08-21T03:32:07;17.00;99.90
5940;DHT22;2995;-31.998;115.906;2023-08-21T03:34:39;17.20;99.90
5940;DHT22;2995;-31.998;115.906;2023-08-21T03:37:10;17.10;99.90
5940;DHT22;2995;-31.998;115.906;2023-08-21T03:39:41;16.80;99.90
5940;DHT22;2995;-31.998;115.906;2023-08-21T03:42:14;16.90;99.90
5940;DHT22;2995;-31.998;115.906;2023-08-21T03:44:45;17.10;99.90
5940;DHT22;2995;-31.998;115.906;2023-08-21T03:47:18;16.90;99.90
5940;DHT22;2995;-31.998;115.906;2023-08-21T03:49:49;16.80;99.90
5940;DHT22;2995;-31.998;115.906;2023-08-21T03:52:20;17.00;99.90
5940;DHT22;2995;-31.998;115.906;2023-08-21T03:54:52;17.10;99.90
5940;DHT22;2995;-31.998;115.906;2023-08-21T03:57:26;17.20;99.90
5940;DHT22;2995;-31.998;115.906;2023-08-21T03:59:57;17.40;99.90
5940;DHT22;2995;-31.998;115.906;2023-08-21T04:02:28;17.40;99.90
5940;DHT22;2995;-31.998;115.906;2023-08-21T04:05:00;17.50;99.90
5940;DHT22;2995;-31.998;115.906;2023-08-21T04:07:31;17.60;99.90
5940;DHT22;2995;-31.998;115.906;2023-08-21T04:10:03;17.40;99.90
5940;DHT22;2995;-31.998;115.906;2023-08-21T04:12:36;17.30;99.90
5940;DHT22;2995;-31.998;115.906;2023-08-21T04:15:08;17.40;99.90
5940;DHT22;2995;-31.998;115.906;2023-08-21T04:17:40;17.50;99.90
5940;DHT22;2995;-31.998;115.906;2023-08-21T04:20:11;17.90;99.90
5940;DHT22;2995;-31.998;115.906;2023-08-21T04:22:43;17.80;99.90
5940;DHT22;2995;-31.998;115.906;2023-08-21T04:25:14;17.40;99.90
5940;DHT22;2995;-31.998;115.906;2023-08-21T04:27:47;17.30;99.90
5940;DHT22;2995;-31.998;115.906;2023-08-21T04:30:18;17.10;99.90
5940;DHT22;2995;-31.998;115.906;2023-08-21T04:32:50;17.00;99.90
5940;DHT22;2995;-31.998;115.906;2023-08-21T04:35:21;17.00;99.90
5940;DHT22;2995;-31.998;115.906;2023-08-21T04:37:53;17.40;99.90
5940;DHT22;2995;-31.998;115.906;2023-08-21T04:40:26;17.60;99.90
5940;DHT22;2995;-31.998;115.906;2023-08-21T04:42:59;17.70;99.90
5940;DHT22;2995;-31.998;115.906;2023-08-21T04:45:30;17.70;99.90
5940;DHT22;2995;-31.998;115.906;2023-08-21T04:48:01;17.90;99.90
5940;DHT22;2995;-31.998;115.906;2023-08-21T04:53:02;17.80;99.90
5940;DHT22;2995;-31.998;115.906;2023-08-21T04:55:33;17.70;99.90
5940;DHT22;2995;-31.998;115.906;2023-08-21T04:58:07;17.70;99.90
5940;DHT22;2995;-31.998;115.906;2023-08-21T05:00:38;17.90;99.90
5940;DHT22;2995;-31.998;115.906;2023-08-21T05:03:09;18.00;99.90
5940;DHT22;2995;-31.998;115.906;2023-08-21T05:05:40;18.10;99.90
5940;DHT22;2995;-31.998;115.906;2023-08-21T05:08:12;18.10;99.90
5940;DHT22;2995;-31.998;115.906;2023-08-21T05:10:43;18.10;99.90
5940;DHT22;2995;-31.998;115.906;2023-08-21T05:13:16;18.20;99.90
5940;DHT22;2995;-31.998;115.906;2023-08-21T05:15:52;18.40;99.90
5940;DHT22;2995;-31.998;115.906;2023-08-21T05:18:24;18.20;99.90
5940;DHT22;2995;-31.998;115.906;2023-08-21T05:20:56;18.30;99.90
5940;DHT22;2995;-31.998;115.906;2023-08-21T05:23:28;18.20;99.90
5940;DHT22;2995;-31.998;115.906;2023-08-21T05:25:59;18.30;99.90
5940;DHT22;2995;-31.998;115.906;2023-08-21T05:28:32;18.40;99.90
5940;DHT22;2995;-31.998;115.906;2023-08-21T05:31:04;18.50;99.90
5940;DHT22;2995;-31.998;115.906;2023-08-21T05:33:35;18.50;99.90
5940;DHT22;2995;-31.998;115.906;2023-08-21T05:36:07;18.60;99.90
5940;DHT22;2995;-31.998;115.906;2023-08-21T05:38:38;18.60;99.90
5940;DHT22;2995;-31.998;115.906;2023-08-21T05:41:09;18.60;99.90
5940;DHT22;2995;-31.998;115.906;2023-08-21T05:43:42;18.50;99.90
5940;DHT22;2995;-31.998;115.906;2023-08-21T05:46:14;18.50;99.90
5940;DHT22;2995;-31.998;115.906;2023-08-21T05:48:45;18.60;99.90
5940;DHT22;2995;-31.998;115.906;2023-08-21T05:51:16;18.40;99.90
5940;DHT22;2995;-31.998;115.906;2023-08-21T05:53:48;18.60;99.90
5940;DHT22;2995;-31.998;115.906;2023-08-21T05:56:19;18.30;99.90
5940;DHT22;2995;-31.998;115.906;2023-08-21T05:58:52;18.20;99.90
5940;DHT22;2995;-31.998;115.906;2023-08-21T06:01:23;18.20;99.90
5940;DHT22;2995;-31.998;115.906;2023-08-21T06:03:54;18.20;99.90
5940;DHT22;2995;-31.998;115.906;2023-08-21T06:06:26;18.20;99.90
5940;DHT22;2995;-31.998;115.906;2023-08-21T06:08:57;18.30;99.90
5940;DHT22;2995;-31.998;115.906;2023-08-21T06:11:28;18.30;99.90
5940;DHT22;2995;-31.998;115.906;2023-08-21T06:14:01;18.30;99.90
5940;DHT22;2995;-31.998;115.906;2023-08-21T06:16:32;18.20;99.90
5940;DHT22;2995;-31.998;115.906;2023-08-21T06:19:03;18.20;99.90
5940;DHT22;2995;-31.998;115.906;2023-08-21T06:21:35;18.20;99.90
5940;DHT22;2995;-31.998;115.906;2023-08-21T06:24:06;18.40;99.90
5940;DHT22;2995;-31.998;115.906;2023-08-21T06:26:37;18.20;99.90
5940;DHT22;2995;-31.998;115.906;2023-08-21T06:29:10;18.20;99.90
5940;DHT22;2995;-31.998;115.906;2023-08-21T06:31:42;18.20;99.90
5940;DHT22;2995;-31.998;115.906;2023-08-21T06:34:14;18.30;99.90
5940;DHT22;2995;-31.998;115.906;2023-08-21T06:36:45;18.20;99.90
5940;DHT22;2995;-31.998;115.906;2023-08-21T06:39:16;18.20;99.90
5940;DHT22;2995;-31.998;115.906;2023-08-21T06:41:48;18.20;99.90
5940;DHT22;2995;-31.998;115.906;2023-08-21T06:44:22;18.10;99.90
5940;DHT22;2995;-31.998;115.906;2023-08-21T06:46:53;18.10;99.90
5940;DHT22;2995;-31.998;115.906;2023-08-21T06:49:24;18.10;99.90
5940;DHT22;2995;-31.998;115.906;2023-08-21T06:51:55;18.10;99.90
5940;DHT22;2995;-31.998;115.906;2023-08-21T06:54:27;18.10;99.90
5940;DHT22;2995;-31.998;115.906;2023-08-21T06:56:58;18.00;99.90
5940;DHT22;2995;-31.998;115.906;2023-08-21T06:59:31;18.10;99.90
5940;DHT22;2995;-31.998;115.906;2023-08-21T07:02:04;18.10;99.90
5940;DHT22;2995;-31.998;115.906;2023-08-21T07:04:35;18.20;99.90
5940;DHT22;2995;-31.998;115.906;2023-08-21T07:07:06;18.20;99.90
5940;DHT22;2995;-31.998;115.906;2023-08-21T07:09:37;18.20;99.90
5940;DHT22;2995;-31.998;115.906;2023-08-21T07:12:09;18.30;99.90
5940;DHT22;2995;-31.998;115.906;2023-08-21T07:14:42;18.30;99.90
5940;DHT22;2995;-31.998;115.906;2023-08-21T07:17:13;18.20;99.90
5940;DHT22;2995;-31.998;115.906;2023-08-21T07:19:44;18.00;99.90
5940;DHT22;2995;-31.998;115.906;2023-08-21T07:22:17;18.00;99.90
5940;DHT22;2995;-31.998;115.906;2023-08-21T07:24:48;18.00;99.90
5940;DHT22;2995;-31.998;115.906;2023-08-21T07:27:20;18.10;99.90
5940;DHT22;2995;-31.998;115.906;2023-08-21T07:29:53;18.20;99.90
5940;DHT22;2995;-31.998;115.906;2023-08-21T07:32:24;18.30;99.90
5940;DHT22;2995;-31.998;115.906;2023-08-21T07:34:56;18.10;99.90
5940;DHT22;2995;-31.998;115.906;2023-08-21T07:37:27;18.10;99.90
5940;DHT22;2995;-31.998;115.906;2023-08-21T07:39:58;18.10;99.90
5940;DHT22;2995;-31.998;115.906;2023-08-21T07:42:30;18.00;99.90
5940;DHT22;2995;-31.998;115.906;2023-08-21T07:45:03;17.90;99.90
5940;DHT22;2995;-31.998;115.906;2023-08-21T07:47:34;17.70;99.90
5940;DHT22;2995;-31.998;115.906;2023-08-21T07:50:06;17.60;99.90
5940;DHT22;2995;-31.998;115.906;2023-08-21T07:52:38;17.70;99.90
5940;DHT22;2995;-31.998;115.906;2023-08-21T07:55:09;17.70;99.90
5940;DHT22;2995;-31.998;115.906;2023-08-21T07:57:40;17.80;99.90
5940;DHT22;2995;-31.998;115.906;2023-08-21T08:00:15;17.80;99.90
5940;DHT22;2995;-31.998;115.906;2023-08-21T08:02:46;17.80;99.90
5940;DHT22;2995;-31.998;115.906;2023-08-21T08:05:17;17.70;99.90
5940;DHT22;2995;-31.998;115.906;2023-08-21T08:07:49;17.70;99.90
5940;DHT22;2995;-31.998;115.906;2023-08-21T08:10:20;17.60;99.90
5940;DHT22;2995;-31.998;115.906;2023-08-21T08:12:51;17.50;99.90
5940;DHT22;2995;-31.998;115.906;2023-08-21T08:15:25;17.40;99.90
5940;DHT22;2995;-31.998;115.906;2023-08-21T08:17:56;17.50;99.90
5940;DHT22;2995;-31.998;115.906;2023-08-21T08:20:28;17.40;99.90
5940;DHT22;2995;-31.998;115.906;2023-08-21T08:22:59;17.40;99.90
5940;DHT22;2995;-31.998;115.906;2023-08-21T08:25:30;17.30;99.90
5940;DHT22;2995;-31.998;115.906;2023-08-21T08:28:01;17.20;99.90
5940;DHT22;2995;-31.998;115.906;2023-08-21T08:30:35;17.10;99.90
5940;DHT22;2995;-31.998;115.906;2023-08-21T08:33:06;16.90;99.90
5940;DHT22;2995;-31.998;115.906;2023-08-21T08:35:37;16.90;99.90
5940;DHT22;2995;-31.998;115.906;2023-08-21T08:38:08;16.90;99.90
5940;DHT22;2995;-31.998;115.906;2023-08-21T08:40:44;16.80;99.90
5940;DHT22;2995;-31.998;115.906;2023-08-21T08:43:15;16.80;99.90
5940;DHT22;2995;-31.998;115.906;2023-08-21T08:45:49;16.70;99.90
5940;DHT22;2995;-31.998;115.906;2023-08-21T08:48:22;16.60;99.90
5940;DHT22;2995;-31.998;115.906;2023-08-21T08:50:54;16.50;99.90
5940;DHT22;2995;-31.998;115.906;2023-08-21T08:53:27;16.50;99.90
5940;DHT22;2995;-31.998;115.906;2023-08-21T08:55:59;16.40;99.90
5940;DHT22;2995;-31.998;115.906;2023-08-21T08:58:30;16.40;99.90
5940;DHT22;2995;-31.998;115.906;2023-08-21T09:01:04;16.30;99.90
5940;DHT22;2995;-31.998;115.906;2023-08-21T09:03:35;16.20;99.90
5940;DHT22;2995;-31.998;115.906;2023-08-21T09:06:06;16.10;99.90
5940;DHT22;2995;-31.998;115.906;2023-08-21T09:08:37;16.10;99.90
5940;DHT22;2995;-31.998;115.906;2023-08-21T09:11:09;16.00;99.90
5940;DHT22;2995;-31.998;115.906;2023-08-21T09:13:40;15.90;99.90
5940;DHT22;2995;-31.998;115.906;2023-08-21T09:16:14;16.00;99.90
5940;DHT22;2995;-31.998;115.906;2023-08-21T09:18:48;15.90;99.90
5940;DHT22;2995;-31.998;115.906;2023-08-21T09:21:20;15.90;99.90
5940;DHT22;2995;-31.998;115.906;2023-08-21T09:23:57;15.80;99.90
5940;DHT22;2995;-31.998;115.906;2023-08-21T09:26:31;15.70;99.90
5940;DHT22;2995;-31.998;115.906;2023-08-21T09:29:05;15.60;99.90
5940;DHT22;2995;-31.998;115.906;2023-08-21T09:31:39;15.60;99.90
5940;DHT22;2995;-31.998;115.906;2023-08-21T09:34:11;15.60;99.90
5940;DHT22;2995;-31.998;115.906;2023-08-21T09:36:42;15.50;99.90
5940;DHT22;2995;-31.998;115.906;2023-08-21T09:39:17;15.40;99.90
5940;DHT22;2995;-31.998;115.906;2023-08-21T09:41:56;15.30;99.90
5940;DHT22;2995;-31.998;115.906;2023-08-21T09:44:28;15.20;99.90
5940;DHT22;2995;-31.998;115.906;2023-08-21T09:47:02;15.10;99.90
5940;DHT22;2995;-31.998;115.906;2023-08-21T09:49:33;15.10;99.90
5940;DHT22;2995;-31.998;115.906;2023-08-21T09:52:06;15.00;99.90
5940;DHT22;2995;-31.998;115.906;2023-08-21T09:54:39;15.00;99.90
5940;DHT22;2995;-31.998;115.906;2023-08-21T09:57:12;14.80;99.90
5940;DHT22;2995;-31.998;115.906;2023-08-21T09:59:44;15.00;99.90
5940;DHT22;2995;-31.998;115.906;2023-08-21T10:02:17;15.00;99.90
5940;DHT22;2995;-31.998;115.906;2023-08-21T10:04:49;14.80;99.90
5940;DHT22;2995;-31.998;115.906;2023-08-21T10:07:23;14.70;99.90
5940;DHT22;2995;-31.998;115.906;2023-08-21T10:09:55;14.60;99.90
5940;DHT22;2995;-31.998;115.906;2023-08-21T10:12:27;14.60;99.90
5940;DHT22;2995;-31.998;115.906;2023-08-21T10:14:59;14.50;99.90
5940;DHT22;2995;-31.998;115.906;2023-08-21T10:17:33;14.60;99.90
5940;DHT22;2995;-31.998;115.906;2023-08-21T10:20:05;14.70;99.90
5940;DHT22;2995;-31.998;115.906;2023-08-21T10:22:47;14.50;99.90
5940;DHT22;2995;-31.998;115.906;2023-08-21T10:25:20;14.50;99.90
5940;DHT22;2995;-31.998;115.906;2023-08-21T10:27:54;14.60;99.90
5940;DHT22;2995;-31.998;115.906;2023-08-21T10:30:27;14.60;99.90
5940;DHT22;2995;-31.998;115.906;2023-08-21T10:33:00;14.50;99.90
5940;DHT22;2995;-31.998;115.906;2023-08-21T10:35:32;14.40;99.90
5940;DHT22;2995;-31.998;115.906;2023-08-21T10:38:08;14.40;99.90
5940;DHT22;2995;-31.998;115.906;2023-08-21T10:40:41;14.40;99.90
5940;DHT22;2995;-31.998;115.906;2023-08-21T10:43:39;14.40;99.90
5940;DHT22;2995;-31.998;115.906;2023-08-21T10:46:11;14.20;99.90
5940;DHT22;2995;-31.998;115.906;2023-08-21T10:48:45;14.20;99.90
5940;DHT22;2995;-31.998;115.906;2023-08-21T10:51:18;14.10;99.90
5940;DHT22;2995;-31.998;115.906;2023-08-21T10:53:49;14.10;99.90
5940;DHT22;2995;-31.998;115.906;2023-08-21T10:56:21;14.00;99.90
5940;DHT22;2995;-31.998;115.906;2023-08-21T10:58:52;14.00;99.90
5940;DHT22;2995;-31.998;115.906;2023-08-21T11:01:24;14.00;99.90
5940;DHT22;2995;-31.998;115.906;2023-08-21T11:03:57;13.90;99.90
5940;DHT22;2995;-31.998;115.906;2023-08-21T11:06:28;13.90;99.90
5940;DHT22;2995;-31.998;115.906;2023-08-21T11:09:00;13.80;99.90
5940;DHT22;2995;-31.998;115.906;2023-08-21T11:11:36;13.70;99.90
5940;DHT22;2995;-31.998;115.906;2023-08-21T11:14:07;13.70;99.90
5940;DHT22;2995;-31.998;115.906;2023-08-21T11:16:38;13.70;99.90
5940;DHT22;2995;-31.998;115.906;2023-08-21T11:19:12;13.70;99.90
5940;DHT22;2995;-31.998;115.906;2023-08-21T11:21:43;13.70;99.90
5940;DHT22;2995;-31.998;115.906;2023-08-21T11:24:22;13.60;99.90
5940;DHT22;2995;-31.998;115.906;2023-08-21T11:26:54;13.50;99.90
5940;DHT22;2995;-31.998;115.906;2023-08-21T11:29:26;13.40;99.90
5940;DHT22;2995;-31.998;115.906;2023-08-21T11:31:57;13.40;99.90
5940;DHT22;2995;-31.998;115.906;2023-08-21T11:34:33;13.40;99.90
5940;DHT22;2995;-31.998;115.906;2023-08-21T11:37:05;13.20;99.90
5940;DHT22;2995;-31.998;115.906;2023-08-21T11:39:47;13.20;99.90
5940;DHT22;2995;-31.998;115.906;2023-08-21T11:42:20;13.10;99.90
5940;DHT22;2995;-31.998;115.906;2023-08-21T11:44:52;13.10;99.90
5940;DHT22;2995;-31.998;115.906;2023-08-21T11:47:29;12.90;99.90
5940;DHT22;2995;-31.998;115.906;2023-08-21T11:50:07;12.90;99.90
5940;DHT22;2995;-31.998;115.906;2023-08-21T11:52:40;12.90;99.90
5940;DHT22;2995;-31.998;115.906;2023-08-21T11:55:11;12.80;99.90
5940;DHT22;2995;-31.998;115.906;2023-08-21T11:57:52;12.80;99.90
5940;DHT22;2995;-31.998;115.906;2023-08-21T12:00:28;12.80;99.90
5940;DHT22;2995;-31.998;115.906;2023-08-21T12:03:00;12.80;99.90
5940;DHT22;2995;-31.998;115.906;2023-08-21T12:05:36;12.80;99.90
5940;DHT22;2995;-31.998;115.906;2023-08-21T12:08:13;12.80;99.90
5940;DHT22;2995;-31.998;115.906;2023-08-21T12:10:45;12.80;99.90
5940;DHT22;2995;-31.998;115.906;2023-08-21T12:13:21;12.80;99.90
5940;DHT22;2995;-31.998;115.906;2023-08-21T12:15:52;12.70;99.90
5940;DHT22;2995;-31.998;115.906;2023-08-21T12:18:23;12.70;99.90
5940;DHT22;2995;-31.998;115.906;2023-08-21T12:20:57;12.70;99.90
5940;DHT22;2995;-31.998;115.906;2023-08-21T12:23:28;12.80;99.90
5940;DHT22;2995;-31.998;115.906;2023-08-21T12:26:01;12.70;99.90
5940;DHT22;2995;-31.998;115.906;2023-08-21T12:28:32;12.50;99.90
5940;DHT22;2995;-31.998;115.906;2023-08-21T12:31:03;12.60;99.90
5940;DHT22;2995;-31.998;115.906;2023-08-21T12:33:34;12.50;99.90
5940;DHT22;2995;-31.998;115.906;2023-08-21T12:36:08;12.60;99.90
5940;DHT22;2995;-31.998;115.906;2023-08-21T12:38:39;12.60;99.90
5940;DHT22;2995;-31.998;115.906;2023-08-21T12:41:10;12.50;99.90
5940;DHT22;2995;-31.998;115.906;2023-08-21T12:43:42;12.50;99.90
5940;DHT22;2995;-31.998;115.906;2023-08-21T12:46:13;12.50;99.90
5940;DHT22;2995;-31.998;115.906;2023-08-21T12:48:44;12.50;99.90
5940;DHT22;2995;-31.998;115.906;2023-08-21T12:51:18;12.60;99.90
5940;DHT22;2995;-31.998;115.906;2023-08-21T12:53:49;12.50;99.90
5940;DHT22;2995;-31.998;115.906;2023-08-21T12:56:20;12.40;99.90
5940;DHT22;2995;-31.998;115.906;2023-08-21T12:58:52;12.40;99.90
5940;DHT22;2995;-31.998;115.906;2023-08-21T13:01:24;12.40;99.90
5940;DHT22;2995;-31.998;115.906;2023-08-21T13:03:55;12.30;99.90
5940;DHT22;2995;-31.998;115.906;2023-08-21T13:06:28;12.30;99.90
5940;DHT22;2995;-31.998;115.906;2023-08-21T13:08:59;12.10;99.90
5940;DHT22;2995;-31.998;115.906;2023-08-21T13:11:31;12.10;99.90
5940;DHT22;2995;-31.998;115.906;2023-08-21T13:14:03;12.00;99.90
5940;DHT22;2995;-31.998;115.906;2023-08-21T13:16:34;11.90;99.90
5940;DHT22;2995;-31.998;115.906;2023-08-21T13:19:05;11.90;99.90
5940;DHT22;2995;-31.998;115.906;2023-08-21T13:21:38;11.90;99.90
5940;DHT22;2995;-31.998;115.906;2023-08-21T13:24:09;12.00;99.90
5940;DHT22;2995;-31.998;115.906;2023-08-21T13:26:41;11.80;99.90
5940;DHT22;2995;-31.998;115.906;2023-08-21T13:29:12;11.80;99.90
5940;DHT22;2995;-31.998;115.906;2023-08-21T13:31:43;11.80;99.90
5940;DHT22;2995;-31.998;115.906;2023-08-21T13:34:14;11.80;99.90
5940;DHT22;2995;-31.998;115.906;2023-08-21T13:36:47;11.80;99.90
5940;DHT22;2995;-31.998;115.906;2023-08-21T13:39:19;11.70;99.90
5940;DHT22;2995;-31.998;115.906;2023-08-21T13:41:50;11.60;99.90
5940;DHT22;2995;-31.998;115.906;2023-08-21T13:44:22;11.50;99.90
5940;DHT22;2995;-31.998;115.906;2023-08-21T13:46:53;11.40;99.90
5940;DHT22;2995;-31.998;115.906;2023-08-21T13:49:24;11.40;99.90
5940;DHT22;2995;-31.998;115.906;2023-08-21T13:51:58;11.40;99.90
5940;DHT22;2995;-31.998;115.906;2023-08-21T13:54:29;11.30;99.90
5940;DHT22;2995;-31.998;115.906;2023-08-21T13:57:00;11.30;99.90
5940;DHT22;2995;-31.998;115.906;2023-08-21T13:59:31;11.40;99.90
5940;DHT22;2995;-31.998;115.906;2023-08-21T14:02:02;11.20;99.90
5940;DHT22;2995;-31.998;115.906;2023-08-21T14:04:34;11.20;99.90
5940;DHT22;2995;-31.998;115.906;2023-08-21T14:07:07;11.20;99.90
5940;DHT22;2995;-31.998;115.906;2023-08-21T14:09:38;11.30;99.90
5940;DHT22;2995;-31.998;115.906;2023-08-21T14:12:09;11.20;99.90
5940;DHT22;2995;-31.998;115.906;2023-08-21T14:14:40;11.20;99.90
5940;DHT22;2995;-31.998;115.906;2023-08-21T14:17:12;11.10;99.90
5940;DHT22;2995;-31.998;115.906;2023-08-21T14:19:43;11.10;99.90
5940;DHT22;2995;-31.998;115.906;2023-08-21T14:22:16;11.10;99.90
5940;DHT22;2995;-31.998;115.906;2023-08-21T14:24:47;11.00;99.90
5940;DHT22;2995;-31.998;115.906;2023-08-21T14:27:18;11.00;99.90
5940;DHT22;2995;-31.998;115.906;2023-08-21T14:29:50;11.00;99.90
5940;DHT22;2995;-31.998;115.906;2023-08-21T14:32:21;10.90;99.90
5940;DHT22;2995;-31.998;115.906;2023-08-21T14:34:52;10.90;99.90
5940;DHT22;2995;-31.998;115.906;2023-08-21T14:37:25;11.00;99.90
5940;DHT22;2995;-31.998;115.906;2023-08-21T14:39:57;10.90;99.90
5940;DHT22;2995;-31.998;115.906;2023-08-21T14:42:28;10.90;99.90
5940;DHT22;2995;-31.998;115.906;2023-08-21T14:44:59;10.80;99.90
5940;DHT22;2995;-31.998;115.906;2023-08-21T14:47:31;10.80;99.90
5940;DHT22;2995;-31.998;115.906;2023-08-21T14:50:04;10.80;99.90
5940;DHT22;2995;-31.998;115.906;2023-08-21T14:52:37;10.70;99.90
5940;DHT22;2995;-31.998;115.906;2023-08-21T14:55:08;10.70;99.90
5940;DHT22;2995;-31.998;115.906;2023-08-21T14:57:40;10.60;99.90
5940;DHT22;2995;-31.998;115.906;2023-08-21T15:00:11;10.50;99.90
5940;DHT22;2995;-31.998;115.906;2023-08-21T15:02:44;10.40;99.90
5940;DHT22;2995;-31.998;115.906;2023-08-21T15:05:16;10.40;99.90
5940;DHT22;2995;-31.998;115.906;2023-08-21T15:07:49;10.40;99.90
5940;DHT22;2995;-31.998;115.906;2023-08-21T15:10:22;10.40;99.90
5940;DHT22;2995;-31.998;115.906;2023-08-21T15:12:53;10.30;99.90
5940;DHT22;2995;-31.998;115.906;2023-08-21T15:15:25;10.30;99.90
5940;DHT22;2995;-31.998;115.906;2023-08-21T15:17:56;10.30;99.90
5940;DHT22;2995;-31.998;115.906;2023-08-21T15:20:27;10.30;99.90
5940;DHT22;2995;-31.998;115.906;2023-08-21T15:23:00;10.20;99.90
5940;DHT22;2995;-31.998;115.906;2023-08-21T15:25:32;10.10;99.90
5940;DHT22;2995;-31.998;115.906;2023-08-21T15:28:03;10.10;99.90
5940;DHT22;2995;-31.998;115.906;2023-08-21T15:30:34;10.00;99.90
5940;DHT22;2995;-31.998;115.906;2023-08-21T15:33:06;10.00;99.90
5940;DHT22;2995;-31.998;115.906;2023-08-21T15:35:37;10.10;99.90
5940;DHT22;2995;-31.998;115.906;2023-08-21T15:38:10;10.00;99.90
5940;DHT22;2995;-31.998;115.906;2023-08-21T15:40:41;10.00;99.90
5940;DHT22;2995;-31.998;115.906;2023-08-21T15:43:13;9.90;99.90
5940;DHT22;2995;-31.998;115.906;2023-08-21T15:45:44;9.80;99.90
5940;DHT22;2995;-31.998;115.906;2023-08-21T15:48:16;9.80;99.90